^^
Station Historical Data
Daily Summary for July 11, 2018 Units:  English    Metric   Both
« Previous Day
Next Day »
Daily Weekly Monthly Yearly Custom
  High: Low: Average:
Temperature: TemperatureF °F 63.7 °F 74.2 °F
Dew Point: DewpointF °F 63.3 °F 67.8 °F
Humidity: Humidity% 48% 82%
Wind Speed: WindSpeedMPHmph 0.0mph 0.6mph
Wind Gust: WindSpeedGustMPHmph - -
Wind- - SSE
Pressure: PressureIn in 30.32 in -
Precipitation: 0.00 in    
Historical Graphs
 
 
Tabular Data for July 11, 2018
Time Temperature Dew Point Pressure Wind Wind Speed Wind Gust Humidity Rainfall Rate (Hourly)
TemperatureF °F DewpointF °F PressureIn in Calm     Humidity% HourlyPrecipIn in
00:03 67.5 °F 66.9 °F 30.42 in Calm     98% 0.00 in
00:08 67.3 °F 66.7 °F 30.42 in Calm     98% 0.00 in
00:14 67.3 °F 66.7 °F 30.42 in Calm     98% 0.00 in
00:19 67.3 °F 66.7 °F 30.42 in Calm     98% 0.00 in
01:04 66.4 °F 65.8 °F 30.42 in Calm     98% 0.00 in
01:09 66.0 °F 65.5 °F 30.42 in Calm     98% 0.00 in
01:24 65.7 °F 65.1 °F 30.42 in Calm     98% 0.00 in
01:29 65.7 °F 65.1 °F 30.42 in Calm     98% 0.00 in
01:39 65.5 °F 64.9 °F 30.41 in Calm     98% 0.00 in
01:44 65.3 °F 64.8 °F 30.41 in Calm     98% 0.00 in
01:49 65.1 °F 64.6 °F 30.41 in Calm     98% 0.00 in
01:59 65.1 °F 64.8 °F 30.41 in Calm     99% 0.00 in
02:04 64.9 °F 64.4 °F 30.41 in Calm     98% 0.00 in
02:09 64.9 °F 64.4 °F 30.41 in Calm     98% 0.00 in
02:14 64.8 °F 64.2 °F 30.41 in Calm     98% 0.00 in
02:19 64.8 °F 64.4 °F 30.41 in Calm     99% 0.00 in
02:29 64.6 °F 64.0 °F 30.41 in Calm     98% 0.00 in
02:44 64.4 °F 64.0 °F 30.41 in Calm     99% 0.00 in
02:49 64.4 °F 64.0 °F 30.41 in Calm     99% 0.00 in
02:54 64.2 °F 63.9 °F 30.41 in Calm     99% 0.00 in
02:59 64.2 °F 63.9 °F 30.41 in Calm     99% 0.00 in
03:09 64.0 °F 63.7 °F 30.41 in Calm     99% 0.00 in
03:14 64.0 °F 63.7 °F 30.41 in Calm     99% 0.00 in
03:30 64.0 °F 63.7 °F 30.41 in Calm     99% 0.00 in
03:35 63.9 °F 63.5 °F 30.41 in Calm     99% 0.00 in
03:50 63.7 °F 63.3 °F 30.41 in Calm     99% 0.00 in
03:55 63.7 °F 63.3 °F 30.41 in Calm     99% 0.00 in
04:00 64.0 °F 63.7 °F 30.41 in Calm     99% 0.00 in
04:05 64.0 °F 63.7 °F 30.41 in Calm     99% 0.00 in
04:35 64.0 °F 63.7 °F 30.41 in Calm     99% 0.00 in
04:40 64.0 °F 63.7 °F 30.42 in Calm     99% 0.00 in
04:45 64.2 °F 63.9 °F 30.42 in Calm     99% 0.00 in
04:50 64.2 °F 63.9 °F 30.42 in Calm     99% 0.00 in
04:55 64.2 °F 63.9 °F 30.41 in Calm     99% 0.00 in
05:00 64.4 °F 64.0 °F 30.41 in Calm     99% 0.00 in
05:05 64.2 °F 63.9 °F 30.41 in Calm     99% 0.00 in
05:15 64.2 °F 63.9 °F 30.41 in Calm     99% 0.00 in
05:20 64.2 °F 63.9 °F 30.41 in Calm     99% 0.00 in
05:40 64.2 °F 63.9 °F 30.41 in Calm     99% 0.00 in
05:45 64.0 °F 63.7 °F 30.41 in Calm     99% 0.00 in
06:01 64.2 °F 63.9 °F 30.42 in Calm     99% 0.00 in
06:11 64.2 °F 63.9 °F 30.42 in Calm     99% 0.00 in
06:16 64.2 °F 63.9 °F 30.42 in Calm     99% 0.00 in
06:21 64.2 °F 63.9 °F 30.42 in Calm     99% 0.00 in
06:26 64.2 °F 63.9 °F 30.42 in Calm     99% 0.00 in
06:41 64.2 °F 63.9 °F 30.42 in Calm     99% 0.00 in
06:51 64.2 °F 63.7 °F 30.42 in Calm     98% 0.00 in
06:56 64.2 °F 63.7 °F 30.42 in Calm     98% 0.00 in
07:06 64.6 °F 64.0 °F 30.43 in Calm     98% 0.00 in
07:16 64.6 °F 64.0 °F 30.43 in Calm     98% 0.00 in
07:26 64.9 °F 64.4 °F 30.44 in Calm     98% 0.00 in
07:31 64.9 °F 64.0 °F 30.44 in Calm     97% 0.00 in
07:37 65.1 °F 64.2 °F 30.43 in Calm     97% 0.00 in
07:42 65.5 °F 64.6 °F 30.44 in Calm     97% 0.00 in
07:47 65.8 °F 64.6 °F 30.44 in Calm     96% 0.00 in
08:07 66.2 °F 64.8 °F 30.44 in Calm     95% 0.00 in
08:12 66.2 °F 64.8 °F 30.44 in Calm     95% 0.00 in
08:17 66.6 °F 65.1 °F 30.44 in Calm     95% 0.00 in
08:22 66.7 °F 65.3 °F 30.44 in Calm     95% 0.00 in
08:27 68.0 °F 66.2 °F 30.44 in Calm     94% 0.00 in
08:32 69.8 °F 67.1 °F 30.44 in Calm     91% 0.00 in
08:42 69.3 °F 66.2 °F 30.44 in Calm     90% 0.00 in
08:47 69.4 °F 66.4 °F 30.44 in Calm     90% 0.00 in
08:52 69.6 °F 66.6 °F 30.44 in Calm     90% 0.00 in
08:57 70.2 °F 66.7 °F 30.44 in Calm     89% 0.00 in
09:02 70.7 °F 66.9 °F 30.44 in Calm     88% 0.00 in
09:12 70.9 °F 66.7 °F 30.44 in Calm     87% 0.00 in
09:17 72.0 °F 67.5 °F 30.44 in Calm     86% 0.00 in
09:22 72.5 °F 67.5 °F 30.44 in Calm     84% 0.00 in
09:27 72.3 °F 67.6 °F 30.44 in Calm     85% 0.00 in
09:32 71.6 °F 67.1 °F 30.44 in Calm     86% 0.00 in
09:38 71.2 °F 67.1 °F 30.44 in Calm     87% 0.00 in
09:48 71.4 °F 67.6 °F 30.44 in Calm     88% 0.00 in
10:13 75.0 °F 69.1 °F 30.45 in Calm     82% 0.00 in
10:18 75.0 °F 68.7 °F 30.45 in Calm     81% 0.00 in
10:23 75.0 °F 69.4 °F 30.44 in Calm     83% 0.00 in
10:33 76.8 °F 70.2 °F 30.43 in Calm     80% 0.00 in
10:38 77.4 °F 70.3 °F 30.43 in Calm     79% 0.00 in
10:43 77.9 °F 70.5 °F 30.43 in Calm     78% 0.00 in
10:53 78.6 °F 71.2 °F 30.43 in Calm     78% 0.00 in
11:03 79.5 °F 71.6 °F 30.43 in Calm     77% 0.00 in
11:08 79.2 °F 70.9 °F 30.43 in Calm     76% 0.00 in
11:18 81.0 °F 72.0 °F 30.42 in Calm     74% 0.00 in
11:23 81.3 °F 73.0 °F 30.42 in Calm     76% 0.00 in
11:28 82.0 °F 72.5 °F 30.42 in Calm     73% 0.00 in
11:33 82.6 °F 72.7 °F 30.42 in Calm     72% 0.00 in
11:38 82.6 °F 71.8 °F 30.42 in Calm     70% 0.00 in
11:48 82.8 °F 72.0 °F 30.41 in Calm     70% 0.00 in
11:53 82.6 °F 71.8 °F 30.41 in Calm     70% 0.00 in
12:09 83.8 °F 71.8 °F 30.41 in Calm     67% 0.00 in
12:14 84.0 °F 72.0 °F 30.40 in Calm     67% 0.00 in
12:19 84.4 °F 72.1 °F 30.40 in Calm     67% 0.00 in
12:29 84.4 °F 72.7 °F 30.40 in Calm   1.0 mph 68% 0.00 in
12:34 85.5 °F 70.0 °F 30.40 in Calm   1.0 mph 60% 0.00 in
12:44 85.8 °F 71.2 °F 30.39 in Calm   1.0 mph 62% 0.00 in
12:54 86.2 °F 71.1 °F 30.39 in Calm     61% 0.00 in
12:59 86.7 °F 73.6 °F 30.39 in Calm     65% 0.00 in
13:04 86.7 °F 70.2 °F 30.39 in Calm     58% 0.00 in
13:09 87.3 °F 71.6 °F 30.38 in Calm     60% 0.00 in
13:14 87.4 °F 71.8 °F 30.38 in Calm     60% 0.00 in
13:19 87.4 °F 71.8 °F 30.37 in Calm     60% 0.00 in
13:34 86.7 °F 70.7 °F 30.37 in Calm     59% 0.00 in
13:39 86.9 °F 69.8 °F 30.37 in ENE 2.0 mph 4.0 mph 57% 0.00 in
13:44 87.6 °F 68.9 °F 30.37 in NE 2.9 mph 6.0 mph 54% 0.00 in
13:49 88.0 °F 71.4 °F 30.36 in Calm   2.0 mph 58% 0.00 in
13:54 88.9 °F 69.6 °F 30.36 in ENE 2.0 mph 4.0 mph 53% 0.00 in
14:04 88.9 °F 69.6 °F 30.36 in WNW 2.0 mph 3.0 mph 53% 0.00 in
14:20 88.7 °F 67.1 °F 30.35 in Calm   5.0 mph 49% 0.00 in
14:25 89.2 °F 67.6 °F 30.35 in West 2.0 mph 2.0 mph 49% 0.00 in
14:30 88.9 °F 67.3 °F 30.35 in WSW 2.9 mph 4.0 mph 49% 0.00 in
14:35 88.5 °F 67.5 °F 30.35 in SE 2.0 mph 3.0 mph 50% 0.00 in
14:40 89.4 °F 67.1 °F 30.34 in ENE 4.0 mph 5.0 mph 48% 0.00 in
14:50 89.4 °F 69.4 °F 30.34 in SSE 2.0 mph 5.0 mph 52% 0.00 in
14:55 88.7 °F 68.2 °F 30.34 in West 2.9 mph 6.0 mph 51% 0.00 in
15:00 88.7 °F 69.4 °F 30.34 in SW 0.9 mph 3.0 mph 53% 0.00 in
15:05 88.7 °F 68.7 °F 30.34 in West 2.9 mph 8.0 mph 52% 0.00 in
15:25 89.2 °F 69.8 °F 30.34 in West 6.0 mph 6.0 mph 53% 0.00 in
15:55 90.5 °F 71.1 °F 30.33 in West 0.9 mph 2.0 mph 53% 0.00 in
16:00 90.7 °F 71.8 °F 30.33 in WSW 0.9 mph 2.0 mph 54% 0.00 in
16:05 90.1 °F 71.8 °F 30.33 in SSE 0.9 mph 1.0 mph 55% 0.00 in
16:10 91.2 °F 70.5 °F 30.33 in SSE 0.9 mph 1.0 mph 51% 0.00 in
16:25 88.9 °F 69.6 °F 30.33 in Calm   1.0 mph 53% 0.00 in
16:30 89.4 °F 74.1 °F 30.33 in East 4.0 mph 4.0 mph 61% 0.00 in
16:35 89.8 °F 74.1 °F 30.33 in Calm   2.0 mph 60% 0.00 in
16:40 88.3 °F 72.7 °F 30.32 in West 0.9 mph 1.0 mph 60% 0.00 in
16:45 87.3 °F 75.0 °F 30.32 in West 0.9 mph 2.0 mph 67% 0.00 in
16:50 86.9 °F 74.1 °F 30.32 in West 0.9 mph 1.0 mph 66% 0.00 in
16:56 86.0 °F 74.7 °F 30.32 in Calm   2.0 mph 69% 0.00 in
17:11 86.5 °F 72.0 °F 30.32 in East 0.9 mph 2.0 mph 62% 0.00 in
17:16 86.2 °F 71.6 °F 30.32 in Calm   4.0 mph 62% 0.00 in
17:21 85.8 °F 71.2 °F 30.32 in East 0.9 mph 3.0 mph 62% 0.00 in
17:31 85.5 °F 72.3 °F 30.32 in NE 6.0 mph 8.0 mph 65% 0.00 in
17:36 84.0 °F 70.5 °F 30.33 in SE 6.0 mph 12.0 mph 64% 0.00 in
17:41 82.8 °F 70.2 °F 30.34 in SE 2.9 mph 9.0 mph 66% 0.00 in
17:46 81.3 °F 70.5 °F 30.34 in East 2.9 mph 8.0 mph 70% 0.00 in
18:06 81.9 °F 70.3 °F 30.33 in ENE 0.9 mph 8.0 mph 68% 0.00 in
18:16 80.4 °F 69.8 °F 30.33 in NE 10.1 mph 10.0 mph 70% 0.00 in
18:21 79.3 °F 70.3 °F 30.33 in NNE 6.9 mph 10.0 mph 74% 0.00 in
18:26 79.0 °F 70.3 °F 30.34 in ENE 2.0 mph 4.0 mph 75% 0.00 in
18:31 78.6 °F 70.9 °F 30.34 in ESE 2.0 mph 5.0 mph 77% 0.00 in
18:41 78.6 °F 70.9 °F 30.34 in NE 0.9 mph 4.0 mph 77% 0.00 in
18:51 78.1 °F 71.1 °F 30.34 in Calm   2.0 mph 79% 0.00 in
18:56 78.3 °F 70.9 °F 30.34 in Calm   2.0 mph 78% 0.00 in
19:01 77.9 °F 70.9 °F 30.34 in NE 2.9 mph 5.0 mph 79% 0.00 in
19:06 77.5 °F 70.9 °F 30.34 in ESE 2.9 mph 4.0 mph 80% 0.00 in
19:11 77.4 °F 70.7 °F 30.34 in Calm   1.0 mph 80% 0.00 in
19:16 77.2 °F 70.5 °F 30.34 in Calm   2.0 mph 80% 0.00 in
19:27 76.6 °F 70.7 °F 30.34 in WNW 0.9 mph 3.0 mph 82% 0.00 in
19:32 76.5 °F 70.5 °F 30.34 in ESE 0.9 mph 1.0 mph 82% 0.00 in
19:42 76.1 °F 70.5 °F 30.36 in WNW 0.9 mph 1.0 mph 83% 0.00 in
19:47 76.1 °F 70.9 °F 30.36 in SE 0.9 mph 1.0 mph 84% 0.00 in
19:52 75.9 °F 70.7 °F 30.36 in ESE 0.9 mph 1.0 mph 84% 0.00 in
20:02 75.9 °F 70.3 °F 30.37 in NNE 0.9 mph 1.0 mph 83% 0.00 in
20:12 75.9 °F 70.3 °F 30.36 in Calm   1.0 mph 83% 0.00 in
20:17 75.9 °F 71.1 °F 30.37 in Calm   1.0 mph 85% 0.00 in
20:22 75.6 °F 70.7 °F 30.37 in Calm   1.0 mph 85% 0.00 in
20:27 75.4 °F 70.5 °F 30.37 in NE 0.9 mph 5.0 mph 85% 0.00 in
20:47 74.1 °F 70.3 °F 30.37 in Calm   1.0 mph 88% 0.00 in
20:52 73.8 °F 70.3 °F 30.37 in Calm     89% 0.00 in
20:57 73.4 °F 70.3 °F 30.37 in Calm   1.0 mph 90% 0.00 in
21:12 73.0 °F 70.0 °F 30.37 in Calm   1.0 mph 90% 0.00 in
21:22 72.3 °F 69.8 °F 30.37 in Calm     92% 0.00 in
21:27 72.1 °F 69.6 °F 30.37 in Calm   1.0 mph 92% 0.00 in
21:32 72.0 °F 69.4 °F 30.38 in Calm   1.0 mph 92% 0.00 in
21:58 71.4 °F 69.3 °F 30.38 in NE 2.0 mph 4.0 mph 93% 0.00 in
22:18 70.9 °F 69.1 °F 30.39 in Calm   4.0 mph 94% 0.00 in
22:23 70.9 °F 69.1 °F 30.39 in Calm     94% 0.00 in
22:28 70.9 °F 69.1 °F 30.40 in WNW 0.9 mph 1.0 mph 94% 0.00 in
22:33 70.9 °F 69.1 °F 30.40 in WNW 0.9 mph 1.0 mph 94% 0.00 in
22:38 70.7 °F 68.9 °F 30.40 in WNW 2.0 mph 2.0 mph 94% 0.00 in
22:43 70.5 °F 69.1 °F 30.40 in WNW 0.9 mph 1.0 mph 95% 0.00 in
23:03 70.0 °F 68.5 °F 30.41 in Calm   1.0 mph 95% 0.00 in
23:08 70.0 °F 68.7 °F 30.41 in Calm     96% 0.00 in
23:13 69.8 °F 68.5 °F 30.41 in Calm     96% 0.00 in
23:18 69.6 °F 68.4 °F 30.42 in Calm     96% 0.00 in
23:23 69.4 °F 68.2 °F 30.42 in Calm     96% 0.00 in
23:28 69.4 °F 68.2 °F 30.42 in Calm   1.0 mph 96% 0.00 in
23:33 69.3 °F 68.0 °F 30.42 in Calm   1.0 mph 96% 0.00 in
23:38 69.3 °F 68.0 °F 30.42 in Calm     96% 0.00 in
23:43 69.3 °F 68.4 °F 30.42 in Calm   1.0 mph 97% 0.00 in
23:48 69.1 °F 68.2 °F 30.43 in Calm     97% 0.00 in
23:53 69.1 °F 68.2 °F 30.43 in Calm   1.0 mph 97% 0.00 in
23:58 68.9 °F 68.0 °F 30.43 in Calm     97% 0.00 in
WheeWeather.com
Compliments of Weather Underground - 2 mb